Time;durP1;ratioP1;P1;durP2;ratioP2;P2;SDS_P1;SDS_P2;PMS_P1;PMS_P2;Temp;Humidity;BMP_temperature;BMP_pressure;BME280_temperature;BME280_humidity;BME280_pressure;Samples;Min_cycle;Max_cycle;Signal;HPM_P1;HPM_P2
2021/12/07 00:01:08;;;;;;;;;;;;;;;-144.99;99.57;52651.94;5080842;28;19984;-62
2021/12/07 00:03:35;;;;;;;;;;;;;;;-144.99;99.24;52688.63;5084809;28;20468;-61
2021/12/07 00:06:05;;;;;;;;;;;;;;;-144.99;99.34;52660.09;5084326;28;19977;-60
2021/12/07 00:08:32;;;;;;;;;;;;;;;-144.99;99.52;52700.84;5082868;28;19995;-61
2021/12/07 00:10:59;;;;;;;;;;;;;;;-144.99;99.10;52672.31;5086215;28;20063;-61
2021/12/07 00:13:29;;;;;;;;;;;;;;;-144.99;99.60;52676.38;5082979;28;19997;-61
2021/12/07 00:15:55;;;;;;;;;;;;;;;-144.99;99.27;52721.22;5084760;28;19988;-61
2021/12/07 00:18:22;;;;;;;;;;;;;;;-144.99;98.79;52688.63;5088115;28;19976;-60
2021/12/07 00:20:48;;;;;;;;;;;;;;;-144.99;98.73;52664.16;5080515;28;19999;-61
2021/12/07 00:23:16;;;;;;;;;;;;;;;-144.99;99.15;52660.09;5085668;28;20000;-61
2021/12/07 00:25:43;;;;;;;;;;;;;;;-144.99;99.20;52682.50;5086718;28;19977;-60
2021/12/07 00:28:09;;;;;;;;;;;;;;;-144.99;99.35;52733.47;5084411;28;19988;-60
2021/12/07 00:30:37;;;;;;;;;;;;;;;-144.99;99.03;52678.44;5088127;28;19977;-60
2021/12/07 00:33:16;;;;;;;;;;;;;;;-144.99;99.00;52696.78;5085803;28;20005;-59
2021/12/07 00:35:43;;;;;;;;;;;;;;;-144.99;99.54;52684.53;5082341;28;19988;-60
2021/12/07 00:38:10;;;;;;;;;;;;;;;-144.99;99.64;52688.63;5086242;28;20115;-59
2021/12/07 00:40:38;;;;;;;;;;;;;;;-144.99;99.32;52700.84;5087835;28;20004;-61
2021/12/07 00:43:05;;;;;;;;;;;;;;;-144.99;99.46;52676.38;5081357;28;20002;-62
2021/12/07 00:45:34;;;;;;;;;;;;;;;-144.99;98.65;52700.84;5080692;28;19980;-62
2021/12/07 00:48:00;;;;;;;;;;;;;;;-144.99;99.35;52676.38;5082996;28;20359;-61
2021/12/07 00:50:28;;;;;;;;;;;;;;;-144.99;99.36;52680.47;5085935;28;20447;-61
2021/12/07 00:52:55;;;;;;;;;;;;;;;-144.99;99.36;52696.78;5076874;28;19995;-61
2021/12/07 00:55:23;;;;;;;;;;;;;;;-144.99;99.22;52660.09;5080953;28;20413;-58
2021/12/07 00:57:53;;;;;;;;;;;;;;;-144.99;99.29;52643.78;5084607;28;19977;-58
2021/12/07 01:00:20;;;;;;;;;;;;;;;-144.99;99.27;52711.03;5085564;28;20020;-58
2021/12/07 01:02:47;;;;;;;;;;;;;;;-144.99;99.17;52637.66;5085212;28;20037;-60
2021/12/07 01:05:18;;;;;;;;;;;;;;;-144.99;99.33;52698.81;5083616;28;20352;-59
2021/12/07 01:08:11;;;;;;;;;;;;;;;-144.99;98.98;52692.69;5083984;28;20352;-60
2021/12/07 01:27:04;;;;;;;;;;;;;;;-144.99;100.00;52696.78;5087074;28;20368;-58
2021/12/07 01:29:33;;;;;;;;;;;;;;;-144.99;100.00;52676.38;5083250;28;19977;-59
2021/12/07 01:32:10;;;;;;;;;;;;;;;-144.99;100.00;52688.63;5087431;28;19988;-58
2021/12/07 01:35:08;;;;;;;;;;;;;;;-144.99;100.00;52688.63;5081980;28;20476;-59
2021/12/07 01:37:43;;;;;;;;;;;;;;;-144.99;100.00;52651.94;5086643;28;20390;-58
2021/12/07 01:43:25;;;;;;;;;;;;;;;-144.99;100.00;52668.22;5090603;28;20309;-62
2021/12/07 01:51:32;;;;;;;;;;;;;;;-144.99;100.00;52713.09;5090478;28;19983;-62
2021/12/07 01:59:34;;;;;;;;;;;;;;;-144.99;100.00;52672.31;5088892;28;19983;-62
2021/12/07 02:02:03;;;;;;;;;;;;;;;-144.99;100.00;52680.47;5090432;28;19981;-62
2021/12/07 02:04:30;;;;;;;;;;;;;;;-144.99;100.00;52709.00;5089783;28;20019;-62
2021/12/07 02:06:56;;;;;;;;;;;;;;;-144.99;100.00;52682.50;5085526;28;19973;-62
2021/12/07 02:09:23;;;;;;;;;;;;;;;-144.99;100.00;52643.78;5090488;28;20067;-61
2021/12/07 02:11:51;;;;;;;;;;;;;;;-144.99;100.00;52688.63;5090682;28;19977;-61
2021/12/07 02:14:17;;;;;;;;;;;;;;;-144.99;100.00;52694.72;5085968;28;20385;-60
2021/12/07 02:16:45;;;;;;;;;;;;;;;-144.99;100.00;52709.00;5084994;28;20025;-61
2021/12/07 02:19:12;;;;;;;;;;;;;;;-144.99;100.00;52656.00;5083704;28;19977;-60
2021/12/07 02:21:40;;;;;;;;;;;;;;;-144.99;100.00;52696.78;5079877;28;20337;-61
2021/12/07 02:24:06;;;;;;;;;;;;;;;-144.99;100.00;52696.78;5085022;28;20473;-62
2021/12/07 02:26:33;;;;;;;;;;;;;;;-144.99;100.00;52696.78;5087859;28;19988;-61
2021/12/07 02:29:00;;;;;;;;;;;;;;;-144.99;100.00;52684.53;5087371;28;20452;-62
2021/12/07 02:31:26;;;;;;;;;;;;;;;-144.99;100.00;52651.94;5088388;28;20038;-60
2021/12/07 02:33:54;;;;;;;;;;;;;;;-144.99;100.00;52709.00;5088460;28;20352;-59
2021/12/07 02:36:20;;;;;;;;;;;;;;;-144.99;100.00;52647.84;5090126;28;20456;-60
2021/12/07 02:38:48;;;;;;;;;;;;;;;-144.99;100.00;52709.00;5081294;28;20025;-59
2021/12/07 02:41:14;;;;;;;;;;;;;;;-144.99;100.00;52704.94;5086519;28;19977;-60
2021/12/07 02:43:41;;;;;;;;;;;;;;;-144.99;100.00;52709.00;5084361;28;20003;-59
2021/12/07 02:46:07;;;;;;;;;;;;;;;-144.99;100.00;52664.16;5089687;28;19980;-61
2021/12/07 02:48:34;;;;;;;;;;;;;;;-144.99;100.00;52651.94;5086150;28;19972;-61
2021/12/07 02:51:00;;;;;;;;;;;;;;;-144.99;100.00;52680.47;5083898;28;20020;-61
2021/12/07 02:53:28;;;;;;;;;;;;;;;-144.99;100.00;52680.47;5084272;28;19992;-61
2021/12/07 02:55:57;;;;;;;;;;;;;;;-144.99;100.00;52725.31;5086710;28;19973;-58
2021/12/07 02:58:24;;;;;;;;;;;;;;;-144.99;100.00;52700.84;5085913;28;19972;-58
2021/12/07 03:00:57;;;;;;;;;;;;;;;-144.99;100.00;52731.44;5088070;28;19979;-58
2021/12/07 03:03:24;;;;;;;;;;;;;;;-144.99;100.00;52656.00;5085161;28;20412;-59
2021/12/07 03:06:02;;;;;;;;;;;;;;;-144.99;100.00;52680.47;5087860;28;19976;-58
2021/12/07 03:09:07;;;;;;;;;;;;;;;-144.99;100.00;52686.59;5085317;28;20020;-60
2021/12/07 03:27:59;;;;;;;;;;;;;;;-144.99;100.00;52656.00;5087372;28;20072;-59
2021/12/07 03:30:26;;;;;;;;;;;;;;;-144.99;100.00;52688.63;5082293;28;19973;-58
2021/12/07 03:32:52;;;;;;;;;;;;;;;-144.99;100.00;52666.19;5085482;28;19991;-62
2021/12/07 03:35:19;;;;;;;;;;;;;;;-144.99;100.00;52713.09;5086157;28;19988;-62
2021/12/07 03:37:45;;;;;;;;;;;;;;;-144.99;100.00;52688.63;5088192;28;20052;-64
2021/12/07 03:40:12;;;;;;;;;;;;;;;-144.99;100.00;52704.94;5082267;28;20365;-62
2021/12/07 03:42:39;;;;;;;;;;;;;;;-144.99;100.00;52664.16;5088265;28;19972;-62
2021/12/07 03:45:08;;;;;;;;;;;;;;;-144.99;99.92;52660.09;5084977;28;19995;-62
2021/12/07 03:47:35;;;;;;;;;;;;;;;-144.99;100.00;52704.94;5089547;28;19976;-62
2021/12/07 03:50:01;;;;;;;;;;;;;;;-144.99;100.00;52709.00;5084271;28;20246;-63
2021/12/07 03:52:27;;;;;;;;;;;;;;;-144.99;100.00;52668.22;5080877;28;20356;-62
2021/12/07 03:54:54;;;;;;;;;;;;;;;-144.99;100.00;52717.16;5085951;28;19989;-62
2021/12/07 03:57:20;;;;;;;;;;;;;;;-144.99;100.00;52684.53;5083510;28;20323;-63
2021/12/07 03:59:47;;;;;;;;;;;;;;;-144.99;100.00;52686.59;5086719;28;19976;-63
2021/12/07 04:02:14;;;;;;;;;;;;;;;-144.99;100.00;52713.09;5084862;28;19986;-59
2021/12/07 04:04:41;;;;;;;;;;;;;;;-144.99;100.00;52684.53;5078185;28;20019;-59
2021/12/07 04:07:07;;;;;;;;;;;;;;;-144.99;100.00;52696.78;5088850;28;20010;-58
2021/12/07 04:09:34;;;;;;;;;;;;;;;-144.99;100.00;52682.50;5087522;28;19972;-58
2021/12/07 04:12:00;;;;;;;;;;;;;;;-144.99;100.00;52686.59;5085361;28;19980;-59
2021/12/07 04:14:27;;;;;;;;;;;;;;;-144.99;100.00;52676.38;5085046;28;20543;-58
2021/12/07 04:16:53;;;;;;;;;;;;;;;-144.99;100.00;52713.09;5087207;28;20412;-59
2021/12/07 04:19:21;;;;;;;;;;;;;;;-144.99;100.00;52680.47;5084603;28;20127;-58
2021/12/07 04:21:47;;;;;;;;;;;;;;;-144.99;100.00;52668.22;5085652;28;19976;-62
2021/12/07 04:24:14;;;;;;;;;;;;;;;-144.99;100.00;52688.63;5086927;28;19996;-56
2021/12/07 04:26:42;;;;;;;;;;;;;;;-144.99;100.00;52664.16;5085332;28;19983;-57
2021/12/07 04:29:09;;;;;;;;;;;;;;;-144.99;100.00;52709.00;5080465;28;20000;-57
2021/12/07 04:31:35;;;;;;;;;;;;;;;-144.99;100.00;52704.94;5081990;28;19984;-59
2021/12/07 04:34:01;;;;;;;;;;;;;;;-144.99;100.00;52696.78;5085734;28;20075;-60
2021/12/07 04:36:29;;;;;;;;;;;;;;;-144.99;100.00;52664.16;5083453;28;19988;-58
2021/12/07 04:38:55;;;;;;;;;;;;;;;-144.99;100.00;52696.78;5088155;28;19976;-58
2021/12/07 04:41:22;;;;;;;;;;;;;;;-144.99;100.00;52696.78;5084183;28;19977;-58
2021/12/07 04:43:49;;;;;;;;;;;;;;;-144.99;100.00;52668.22;5080610;28;20008;-58
2021/12/07 04:46:21;;;;;;;;;;;;;;;-144.99;100.00;52684.53;5085970;28;20058;-57
2021/12/07 04:49:21;;;;;;;;;;;;;;;-144.99;100.00;52678.44;5087227;28;19977;-60
2021/12/07 04:59:56;;;;;;;;;;;;;;;-144.99;100.00;52651.94;5085842;28;20109;-63
2021/12/07 05:02:22;;;;;;;;;;;;;;;-144.99;100.00;52696.78;5088636;28;19999;-64
2021/12/07 05:04:49;;;;;;;;;;;;;;;-144.99;100.00;52668.22;5085229;28;20101;-63
2021/12/07 05:07:24;;;;;;;;;;;;;;;-144.99;100.00;52688.63;5088676;28;19977;-63
2021/12/07 05:10:12;;;;;;;;;;;;;;;-144.99;100.00;52696.78;5084355;28;20015;-63
2021/12/07 05:12:56;;;;;;;;;;;;;;;-144.99;100.00;52688.63;5084532;28;19980;-65
2021/12/07 05:15:29;;;;;;;;;;;;;;;-144.99;100.00;52696.78;5083589;28;19987;-66
2021/12/07 05:18:06;;;;;;;;;;;;;;;-144.99;100.00;52702.88;5083779;28;20055;-63
2021/12/07 05:39:45;;;;;;;;;;;;;;;-144.99;100.00;52680.47;5085794;28;20034;-65
2021/12/07 05:42:12;;;;;;;;;;;;;;;-144.99;100.00;52700.84;5103398;22;20000;-66
2021/12/07 05:44:38;;;;;;;;;;;;;;;-144.99;100.00;52668.22;5111198;28;20014;-65
2021/12/07 05:47:05;;;;;;;;;;;;;;;-144.99;100.00;52651.94;5113771;28;19976;-65
2021/12/07 05:49:31;;;;;;;;;;;;;;;-144.99;100.00;52643.78;5110296;28;20007;-65
2021/12/07 05:51:58;;;;;;;;;;;;;;;-144.99;100.00;52651.94;5113557;28;19979;-66
2021/12/07 05:54:24;;;;;;;;;;;;;;;-144.99;100.00;52649.88;5110979;28;19996;-67
2021/12/07 05:56:52;;;;;;;;;;;;;;;-144.99;100.00;52678.44;5115332;28;19983;-66
2021/12/07 05:59:19;;;;;;;;;;;;;;;-144.99;100.00;52704.94;5105108;28;19972;-70
2021/12/07 06:01:45;;;;;;;;;;;;;;;-144.99;100.00;52692.69;5095564;28;20440;-70
2021/12/07 06:04:11;;;;;;;;;;;;;;;-144.99;100.00;52688.63;5090136;28;19996;-69
2021/12/07 06:06:38;;;;;;;;;;;;;;;-144.99;100.00;52647.84;5099020;28;20149;-69
2021/12/07 06:09:05;;;;;;;;;;;;;;;-144.99;100.00;52721.22;5110639;28;19988;-70
2021/12/07 06:11:32;;;;;;;;;;;;;;;-144.99;100.00;52692.69;5112711;28;19987;-70
2021/12/07 06:13:59;;;;;;;;;;;;;;;-144.99;100.00;52713.09;5110191;28;19993;-70
2021/12/07 06:16:29;;;;;;;;;;;;;;;-144.99;100.00;52690.66;5094052;28;20000;-70
2021/12/07 06:18:56;;;;;;;;;;;;;;;-144.99;100.00;52666.19;4383806;28;10000797;-71
2021/12/07 06:21:23;;;;;;;;;;;;;;;-144.99;100.00;52668.22;5087563;28;19958;-71
2021/12/07 06:23:49;;;;;;;;;;;;;;;-144.99;100.00;52660.09;5086432;28;20008;-72
2021/12/07 06:26:15;;;;;;;;;;;;;;;-144.99;100.00;52690.66;5089896;28;20083;-71
2021/12/07 06:28:42;;;;;;;;;;;;;;;-144.99;100.00;52704.94;5091594;28;19981;-71
2021/12/07 06:31:10;;;;;;;;;;;;;;;-144.99;100.00;52692.69;5091532;28;19999;-71
2021/12/07 06:33:36;;;;;;;;;;;;;;;-144.99;100.00;52684.53;5091949;28;20011;-71
2021/12/07 06:36:04;;;;;;;;;;;;;;;-144.99;100.00;52635.63;5089345;28;19980;-71
2021/12/07 06:38:32;;;;;;;;;;;;;;;-144.99;100.00;52688.63;5090904;28;19987;-71
2021/12/07 06:40:59;;;;;;;;;;;;;;;-144.99;100.00;52690.66;5089552;28;19980;-72
2021/12/07 06:43:26;;;;;;;;;;;;;;;-144.99;100.00;52688.63;5096878;28;20000;-71
2021/12/07 06:45:52;;;;;;;;;;;;;;;-144.99;100.00;52700.84;5094609;28;20014;-74
2021/12/07 06:48:20;;;;;;;;;;;;;;;-144.99;100.00;52676.38;5090805;28;19987;-73
2021/12/07 06:50:47;;;;;;;;;;;;;;;-144.99;100.00;52680.47;5089758;28;19967;-73
2021/12/07 06:53:14;;;;;;;;;;;;;;;-144.99;100.00;52700.84;5089823;28;20023;-74
2021/12/07 06:55:40;;;;;;;;;;;;;;;-144.99;100.00;52680.47;5090714;28;19976;-73
2021/12/07 06:58:07;;;;;;;;;;;;;;;-144.99;100.00;52668.22;5091089;28;19980;-73
2021/12/07 07:00:33;;;;;;;;;;;;;;;-144.99;100.00;52684.53;5090083;28;19980;-73
2021/12/07 07:03:00;;;;;;;;;;;;;;;-144.99;100.00;52684.53;5089686;28;19976;-73
2021/12/07 07:05:28;;;;;;;;;;;;;;;-144.99;100.00;52651.94;5090395;28;19996;-73
2021/12/07 07:07:54;;;;;;;;;;;;;;;-144.99;99.79;52666.19;5091833;28;19978;-73
2021/12/07 07:10:21;;;;;;;;;;;;;;;-144.99;99.71;52664.16;5091293;28;19981;-73
2021/12/07 07:12:47;;;;;;;;;;;;;;;-144.99;99.60;52668.22;5089734;28;19977;-73
2021/12/07 07:15:14;;;;;;;;;;;;;;;-144.99;99.93;52696.78;5089132;28;19980;-71
2021/12/07 07:17:41;;;;;;;;;;;;;;;-144.99;100.00;52700.84;5090134;28;20444;-71
2021/12/07 07:20:09;;;;;;;;;;;;;;;-144.99;99.58;52713.09;5090438;28;19980;-71
2021/12/07 07:22:37;;;;;;;;;;;;;;;-144.99;99.91;52700.84;5086351;28;20434;-72
2021/12/07 07:25:03;;;;;;;;;;;;;;;-144.99;99.66;52704.94;5088277;28;20115;-71
2021/12/07 07:27:30;;;;;;;;;;;;;;;-144.99;99.56;52688.63;5089930;28;20015;-71
2021/12/07 07:29:57;;;;;;;;;;;;;;;-144.99;99.32;52664.16;5089716;28;19988;-71
2021/12/07 07:32:23;;;;;;;;;;;;;;;-144.99;99.10;52704.94;5089699;28;19980;-71
2021/12/07 07:34:50;;;;;;;;;;;;;;;-144.99;99.27;52686.59;5087796;28;19993;-72
2021/12/07 07:37:16;;;;;;;;;;;;;;;-144.99;99.71;52660.09;5090352;28;20399;-71
2021/12/07 07:39:44;;;;;;;;;;;;;;;-144.99;99.71;52684.53;5089549;28;19983;-71
2021/12/07 07:42:11;;;;;;;;;;;;;;;-144.99;99.78;52688.63;5086613;28;20284;-71
2021/12/07 07:44:37;;;;;;;;;;;;;;;-144.99;99.88;52668.22;5088029;28;20349;-71
2021/12/07 07:47:04;;;;;;;;;;;;;;;-144.99;99.86;52623.38;5089477;28;19988;-71
2021/12/07 07:49:30;;;;;;;;;;;;;;;-144.99;99.93;52700.84;5090625;28;19981;-71
2021/12/07 07:51:56;;;;;;;;;;;;;;;-144.99;99.83;52680.47;5089087;28;20360;-71
2021/12/07 07:54:23;;;;;;;;;;;;;;;-144.99;99.40;52709.00;5089252;28;20004;-71
2021/12/07 07:56:50;;;;;;;;;;;;;;;-144.99;99.85;52662.13;5089477;28;20230;-71
2021/12/07 07:59:17;;;;;;;;;;;;;;;-144.99;100.00;52680.47;5089078;28;19961;-71
2021/12/07 08:01:43;;;;;;;;;;;;;;;-144.99;100.00;52643.78;5090825;28;20002;-71
2021/12/07 08:04:10;;;;;;;;;;;;;;;-144.99;100.00;52647.84;5088981;28;19996;-72
2021/12/07 08:06:36;;;;;;;;;;;;;;;-144.99;100.00;52670.28;5084715;28;19981;-71
2021/12/07 08:09:03;;;;;;;;;;;;;;;-144.99;100.00;52660.09;5089234;28;20004;-71
2021/12/07 08:11:30;;;;;;;;;;;;;;;-144.99;100.00;52668.22;5088730;28;19980;-71
2021/12/07 08:13:57;;;;;;;;;;;;;;;-144.99;100.00;52696.78;5088092;28;20059;-71
2021/12/07 08:16:24;;;;;;;;;;;;;;;-144.99;100.00;52680.47;5087414;28;20006;-72
2021/12/07 08:18:52;;;;;;;;;;;;;;;-144.99;100.00;52684.53;5087803;28;20444;-71
2021/12/07 08:21:19;;;;;;;;;;;;;;;-144.99;100.00;52692.69;5086095;28;20068;-71
2021/12/07 08:23:46;;;;;;;;;;;;;;;-144.99;100.00;52725.31;5088580;28;19972;-71
2021/12/07 08:26:14;;;;;;;;;;;;;;;-144.99;100.00;52688.63;5087187;28;20003;-72
2021/12/07 08:28:40;;;;;;;;;;;;;;;-144.99;100.00;52635.63;5086615;28;20538;-71
2021/12/07 08:31:08;;;;;;;;;;;;;;;-144.99;100.00;52692.69;5088401;28;20463;-71
2021/12/07 08:33:35;;;;;;;;;;;;;;;-144.99;100.00;52643.78;5087899;28;20156;-72
2021/12/07 08:36:02;;;;;;;;;;;;;;;-144.99;100.00;52713.09;5087877;28;20464;-71
2021/12/07 08:38:29;;;;;;;;;;;;;;;-144.99;100.00;52651.94;5085100;28;19980;-71
2021/12/07 08:40:57;;;;;;;;;;;;;;;-144.99;100.00;52688.63;5088041;28;19998;-72
2021/12/07 08:43:24;;;;;;;;;;;;;;;-144.99;100.00;52660.09;5088083;28;20000;-72
2021/12/07 08:45:50;;;;;;;;;;;;;;;-144.99;100.00;52700.84;5088141;28;19992;-71
2021/12/07 08:48:18;;;;;;;;;;;;;;;-144.99;100.00;52645.81;5085554;28;20441;-71
2021/12/07 08:50:45;;;;;;;;;;;;;;;-144.99;100.00;52676.38;5090561;28;19976;-70
2021/12/07 08:53:13;;;;;;;;;;;;;;;-144.99;100.00;52684.53;5086623;28;19996;-70
2021/12/07 09:01:08;;;;;;;;;;;;;;;-144.99;100.00;52684.53;5088127;28;19987;-71
2021/12/07 09:03:36;;;;;;;;;;;;;;;-144.99;100.00;52688.63;5088061;28;20109;-71
2021/12/07 09:06:03;;;;;;;;;;;;;;;-144.99;100.00;52656.00;5087445;28;19996;-72
2021/12/07 09:08:29;;;;;;;;;;;;;;;-144.99;100.00;52696.78;5087916;28;19981;-70
2021/12/07 09:10:56;;;;;;;;;;;;;;;-144.99;100.00;52700.84;5087864;28;20429;-71
2021/12/07 09:13:24;;;;;;;;;;;;;;;-144.99;100.00;52688.63;5083399;28;19996;-71
2021/12/07 09:15:51;;;;;;;;;;;;;;;-144.99;100.00;52666.19;5088140;28;19976;-71
2021/12/07 09:18:17;;;;;;;;;;;;;;;-144.99;100.00;52666.19;5083954;28;19984;-71
2021/12/07 09:20:45;;;;;;;;;;;;;;;-144.99;99.96;52676.38;5084399;28;19980;-70
2021/12/07 09:23:12;;;;;;;;;;;;;;;-144.99;99.65;52660.09;5088115;28;19996;-71
2021/12/07 09:25:38;;;;;;;;;;;;;;;-144.99;99.08;52668.22;5088498;28;20355;-72
2021/12/07 09:28:05;;;;;;;;;;;;;;;-144.99;99.31;52688.63;5087385;28;20348;-72
2021/12/07 09:30:32;;;;;;;;;;;;;;;-144.99;99.08;52676.38;5088057;28;19981;-71
2021/12/07 09:32:59;;;;;;;;;;;;;;;-144.99;98.77;52658.03;5088102;28;19977;-73
2021/12/07 09:35:25;;;;;;;;;;;;;;;-144.99;98.32;52664.16;5089017;28;20211;-69
2021/12/07 09:37:54;;;;;;;;;;;;;;;-144.99;98.06;52696.78;5086403;28;20304;-71
2021/12/07 09:40:22;;;;;;;;;;;;;;;-144.99;97.97;52696.78;5088505;28;19988;-71
2021/12/07 09:42:49;;;;;;;;;;;;;;;-144.99;97.55;52647.84;5088366;28;19985;-72
2021/12/07 09:45:16;;;;;;;;;;;;;;;-144.99;97.08;52656.00;5087790;28;19999;-71
2021/12/07 09:47:43;;;;;;;;;;;;;;;-144.99;97.62;52676.38;5087666;28;19981;-71
2021/12/07 09:50:11;;;;;;;;;;;;;;;-144.99;97.47;52676.38;5083345;28;19999;-71
2021/12/07 09:52:37;;;;;;;;;;;;;;;-144.99;97.45;52656.00;5087455;28;19991;-72
2021/12/07 09:55:05;;;;;;;;;;;;;;;-144.99;97.53;52688.63;5087749;28;19996;-72
2021/12/07 09:57:32;;;;;;;;;;;;;;;-144.99;97.41;52680.47;5088615;28;19986;-72
2021/12/07 09:59:59;;;;;;;;;;;;;;;-144.99;97.69;52680.47;5089780;28;20375;-71
2021/12/07 10:02:25;;;;;;;;;;;;;;;-144.99;97.64;52670.28;5092039;28;19981;-71
2021/12/07 10:04:52;;;;;;;;;;;;;;;-144.99;97.04;52670.28;5090111;28;20001;-71
2021/12/07 10:07:18;;;;;;;;;;;;;;;-144.99;97.06;52668.22;5087735;28;20357;-71
2021/12/07 10:09:44;;;;;;;;;;;;;;;-144.99;97.69;52658.03;5091506;28;19980;-71
2021/12/07 10:12:17;;;;;;;;;;;;;;;-144.99;96.96;52706.97;5091133;28;19981;-71
2021/12/07 10:14:44;;;;;;;;;;;;;;;-144.99;97.54;52684.53;5091158;28;19992;-71
2021/12/07 10:17:10;;;;;;;;;;;;;;;-144.99;97.57;52653.97;5090927;28;20613;-71
2021/12/07 10:19:42;;;;;;;;;;;;;;;-144.99;97.37;52660.09;5091756;28;19990;-70
2021/12/07 10:22:11;;;;;;;;;;;;;;;-144.99;97.01;52643.78;5111239;28;19991;-70
2021/12/07 10:24:40;;;;;;;;;;;;;;;-144.99;96.80;52682.50;5113921;28;19981;-70
2021/12/07 10:27:07;;;;;;;;;;;;;;;-144.99;96.19;52631.53;5106997;28;19973;-72
2021/12/07 10:29:35;;;;;;;;;;;;;;;-144.99;95.67;52668.22;5112645;28;20036;-69
2021/12/07 10:32:05;;;;;;;;;;;;;;;-144.99;95.20;52645.81;5112673;28;19991;-69
2021/12/07 10:34:34;;;;;;;;;;;;;;;-144.99;94.70;52645.81;5110622;28;20003;-71
2021/12/07 10:37:06;;;;;;;;;;;;;;;-144.99;94.69;52676.38;5106349;28;20075;-72
2021/12/07 10:39:33;;;;;;;;;;;;;;;-144.99;95.16;52651.94;5092830;28;20000;-69
2021/12/07 10:42:01;;;;;;;;;;;;;;;-144.99;95.23;52676.38;5091249;28;20006;-70
2021/12/07 10:44:30;;;;;;;;;;;;;;;-144.99;95.16;52668.22;5091578;28;19993;-69
2021/12/07 10:46:58;;;;;;;;;;;;;;;-144.99;95.25;52635.63;5091810;28;19993;-70
2021/12/07 10:49:43;;;;;;;;;;;;;;;-144.99;95.29;52635.63;5093170;28;19976;-70
2021/12/07 10:52:30;;;;;;;;;;;;;;;-144.99;95.45;52643.78;5082768;28;19976;-70
2021/12/07 10:54:59;;;;;;;;;;;;;;;-144.99;95.22;52696.78;5089723;28;20676;-70
2021/12/07 10:57:27;;;;;;;;;;;;;;;-144.99;95.30;52658.03;5092125;28;19980;-69
2021/12/07 10:59:59;;;;;;;;;;;;;;;-144.99;95.64;52639.69;5091420;28;20031;-70
2021/12/07 11:02:33;;;;;;;;;;;;;;;-144.99;96.34;52688.63;5091023;28;20349;-69
2021/12/07 11:04:59;;;;;;;;;;;;;;;-144.99;96.72;52664.16;5090355;28;19997;-70
2021/12/07 11:07:27;;;;;;;;;;;;;;;-144.99;96.45;52676.38;5091077;28;19983;-70
2021/12/07 11:10:06;;;;;;;;;;;;;;;-144.99;96.41;52649.88;5089078;28;19980;-69
2021/12/07 11:12:39;;;;;;;;;;;;;;;-144.99;95.85;52639.69;5090921;28;19976;-70
2021/12/07 11:15:13;;;;;;;;;;;;;;;-144.99;95.47;52676.38;5087712;28;19993;-70
2021/12/07 11:17:41;;;;;;;;;;;;;;;-144.99;95.34;52651.94;5091247;28;19984;-70
2021/12/07 11:20:08;;;;;;;;;;;;;;;-144.99;95.23;52647.84;5089831;28;19980;-70
2021/12/07 11:22:37;;;;;;;;;;;;;;;-144.99;95.68;52639.69;5088670;28;19983;-70
2021/12/07 11:25:04;;;;;;;;;;;;;;;-144.99;95.32;52688.63;5089639;28;19970;-70
2021/12/07 11:30:17;;;;;;;;;;;;;;;-144.99;95.81;52643.78;5090639;28;20065;-70
2021/12/07 11:32:48;;;;;;;;;;;;;;;-144.99;95.98;52686.59;5091485;28;20219;-70
2021/12/07 11:35:17;;;;;;;;;;;;;;;-144.99;95.95;52688.63;5090720;28;19976;-71
2021/12/07 11:37:44;;;;;;;;;;;;;;;-144.99;95.46;52656.00;5087439;28;20252;-69
2021/12/07 11:40:11;;;;;;;;;;;;;;;-144.99;95.82;52686.59;5089260;28;20529;-70
2021/12/07 11:42:39;;;;;;;;;;;;;;;-144.99;95.60;52651.94;5089722;28;20024;-70
2021/12/07 11:45:08;;;;;;;;;;;;;;;-144.99;95.49;52678.44;5089046;28;20480;-70
2021/12/07 11:47:35;;;;;;;;;;;;;;;-144.99;95.52;52684.53;5088374;28;20360;-70
2021/12/07 11:50:10;;;;;;;;;;;;;;;-144.99;95.34;52623.38;5089536;28;19981;-70
2021/12/07 11:52:36;;;;;;;;;;;;;;;-144.99;95.70;52629.50;5089115;28;20210;-70
2021/12/07 11:55:03;;;;;;;;;;;;;;;-144.99;96.27;52676.38;5089490;28;20316;-70
2021/12/07 11:57:30;;;;;;;;;;;;;;;-144.99;95.65;52696.78;5094940;28;20329;-71
2021/12/07 11:59:56;;;;;;;;;;;;;;;-144.99;95.14;52635.63;5091754;28;20222;-71
2021/12/07 12:02:24;;;;;;;;;;;;;;;-144.99;95.01;52684.53;5089592;28;19981;-71
2021/12/07 12:04:50;;;;;;;;;;;;;;;-144.99;95.60;52668.22;5090653;28;20032;-70
2021/12/07 12:07:20;;;;;;;;;;;;;;;-144.99;95.56;52684.53;5084897;28;19996;-70
2021/12/07 12:09:49;;;;;;;;;;;;;;;-144.99;95.71;52643.78;5090860;28;19984;-70
2021/12/07 12:12:17;;;;;;;;;;;;;;;-144.99;96.47;52700.84;5092884;28;20410;-71
2021/12/07 12:14:56;;;;;;;;;;;;;;;-144.99;95.75;52639.69;5090031;28;19988;-70
2021/12/07 12:17:32;;;;;;;;;;;;;;;-144.99;95.64;52643.78;5084434;28;19980;-70
2021/12/07 12:20:10;;;;;;;;;;;;;;;-144.99;95.86;52668.22;5086363;28;20387;-70
2021/12/07 12:22:42;;;;;;;;;;;;;;;-144.99;95.67;52647.84;5089374;28;19973;-70
2021/12/07 12:25:10;;;;;;;;;;;;;;;-144.99;96.33;52660.09;5085072;28;20396;-70
2021/12/07 12:27:37;;;;;;;;;;;;;;;-144.99;96.52;52684.53;5086618;28;20003;-70
2021/12/07 12:30:16;;;;;;;;;;;;;;;-144.99;96.97;52670.28;5088266;28;20031;-71
2021/12/07 12:32:44;;;;;;;;;;;;;;;-144.99;96.21;52668.22;5088796;28;20006;-70
2021/12/07 12:35:12;;;;;;;;;;;;;;;-144.99;95.66;52645.81;5080389;28;19980;-71
2021/12/07 12:37:45;;;;;;;;;;;;;;;-144.99;95.57;52692.69;5087013;28;19987;-71
2021/12/07 12:40:18;;;;;;;;;;;;;;;-144.99;95.37;52651.94;5085459;28;19977;-70
2021/12/07 12:42:46;;;;;;;;;;;;;;;-144.99;94.81;52656.00;5083822;28;20071;-71
2021/12/07 12:45:19;;;;;;;;;;;;;;;-144.99;95.30;52651.94;5083726;28;20348;-71
2021/12/07 12:47:46;;;;;;;;;;;;;;;-144.99;95.25;52668.22;5088658;28;20031;-71
2021/12/07 12:50:14;;;;;;;;;;;;;;;-144.99;95.70;52660.09;5086991;28;19980;-71
2021/12/07 12:52:44;;;;;;;;;;;;;;;-144.99;95.68;52651.94;5088775;28;19991;-71
2021/12/07 12:55:37;;;;;;;;;;;;;;;-144.99;95.39;52615.25;5087415;28;19987;-72
2021/12/07 12:58:04;;;;;;;;;;;;;;;-144.99;95.18;52660.09;5062436;28;20345;-71
2021/12/07 13:00:49;;;;;;;;;;;;;;;-144.99;95.72;52643.78;5086428;28;19977;-71
2021/12/07 13:03:15;;;;;;;;;;;;;;;-144.99;96.88;52651.94;5084907;28;20022;-71
2021/12/07 13:05:44;;;;;;;;;;;;;;;-144.99;96.56;52664.16;5085581;28;20303;-73
2021/12/07 13:08:13;;;;;;;;;;;;;;;-144.99;97.04;52676.38;5088464;28;19976;-72
2021/12/07 13:10:54;;;;;;;;;;;;;;;-144.99;96.81;52643.78;5086870;28;19952;-73
2021/12/07 13:13:24;;;;;;;;;;;;;;;-144.99;97.75;52692.69;5085847;28;20001;-72
2021/12/07 13:15:50;;;;;;;;;;;;;;;-144.99;97.34;52631.53;5086974;28;20441;-72
2021/12/07 13:18:20;;;;;;;;;;;;;;;-144.99;97.52;52668.22;5088846;28;19984;-72
2021/12/07 13:20:50;;;;;;;;;;;;;;;-144.99;98.14;52684.53;5087095;28;20425;-72
2021/12/07 13:23:18;;;;;;;;;;;;;;;-144.99;98.16;52676.38;5086897;28;19997;-73
2021/12/07 13:25:46;;;;;;;;;;;;;;;-144.99;97.94;52643.78;5088853;28;20472;-74
2021/12/07 13:28:21;;;;;;;;;;;;;;;-144.99;98.40;52676.38;5088758;28;19976;-72
2021/12/07 13:31:03;;;;;;;;;;;;;;;-144.99;99.36;52682.50;5087612;28;20002;-74
2021/12/07 13:33:37;;;;;;;;;;;;;;;-144.99;99.00;52611.16;5078754;28;20003;-73
2021/12/07 13:36:19;;;;;;;;;;;;;;;-144.99;99.05;52688.63;5087689;28;19984;-72
2021/12/07 13:38:46;;;;;;;;;;;;;;;-144.99;98.75;52709.00;5087827;28;20531;-72
2021/12/07 13:41:22;;;;;;;;;;;;;;;-144.99;99.38;52668.22;5087252;28;20437;-73
2021/12/07 13:43:50;;;;;;;;;;;;;;;-144.99;99.34;52668.22;5087669;28;20087;-72
2021/12/07 13:46:17;;;;;;;;;;;;;;;-144.99;99.13;52664.16;5087312;28;20372;-72
2021/12/07 13:48:44;;;;;;;;;;;;;;;-144.99;99.00;52672.31;5087602;28;20002;-73
2021/12/07 13:51:11;;;;;;;;;;;;;;;-144.99;99.11;52680.47;5086836;28;19985;-72
2021/12/07 13:53:39;;;;;;;;;;;;;;;-144.99;98.90;52672.31;5087927;28;20007;-72